Time;durP1;ratioP1;P1;durP2;ratioP2;P2;SDS_P1;SDS_P2;PMS_P1;PMS_P2;Temp;Humidity;BMP_temperature;BMP_pressure;BME280_temperature;BME280_humidity;BME280_pressure;Samples;Min_cycle;Max_cycle;Signal;HPM_P1;HPM_P2
2023/01/07 00:01:17;;;;;;;11.57;7.90;;;8.50;99.90;;;;;;5077492;28;20462;-70
2023/01/07 00:03:45;;;;;;;11.60;9.30;;;8.50;99.90;;;;;;5080728;28;20556;-69
2023/01/07 00:06:14;;;;;;;10.07;8.70;;;8.50;99.90;;;;;;5077113;28;20462;-69
2023/01/07 00:08:43;;;;;;;10.30;8.63;;;8.50;99.90;;;;;;5077146;28;20553;-69
2023/01/07 00:11:11;;;;;;;9.10;7.83;;;8.50;99.90;;;;;;5076910;28;20554;-70
2023/01/07 00:13:40;;;;;;;12.47;8.60;;;8.50;99.90;;;;;;5076878;28;20477;-67
2023/01/07 00:16:08;;;;;;;10.77;9.67;;;8.50;99.90;;;;;;5077003;28;20464;-69
2023/01/07 00:18:36;;;;;;;8.80;7.90;;;8.50;99.90;;;;;;5076828;28;20464;-69
2023/01/07 00:21:05;;;;;;;10.47;7.87;;;8.50;99.90;;;;;;5076435;28;20469;-69
2023/01/07 00:23:33;;;;;;;9.90;8.20;;;8.50;99.90;;;;;;5076493;28;20843;-68
2023/01/07 00:26:01;;;;;;;10.23;8.47;;;8.50;99.90;;;;;;5076569;28;20534;-68
2023/01/07 00:28:28;;;;;;;9.87;8.53;;;8.50;99.90;;;;;;5076620;28;20473;-69
2023/01/07 00:31:00;;;;;;;9.60;7.90;;;8.40;99.90;;;;;;5076211;28;20464;-69
2023/01/07 00:33:28;;;;;;;9.07;8.17;;;8.40;99.90;;;;;;5077566;28;20464;-69
2023/01/07 00:35:59;;;;;;;10.40;8.50;;;8.40;99.90;;;;;;5079876;28;20454;-69
2023/01/07 00:38:26;;;;;;;9.50;8.07;;;8.30;99.90;;;;;;5079279;28;20525;-69
2023/01/07 00:40:53;;;;;;;11.73;8.17;;;8.30;99.90;;;;;;5080257;28;20538;-69
2023/01/07 00:43:20;;;;;;;9.70;7.60;;;8.30;99.90;;;;;;5079121;28;20473;-68
2023/01/07 00:45:47;;;;;;;9.90;7.67;;;8.30;99.90;;;;;;5078675;28;20460;-68
2023/01/07 00:48:17;;;;;;;8.60;7.20;;;8.30;99.90;;;;;;5078459;28;20454;-68
2023/01/07 00:50:45;;;;;;;7.80;6.63;;;8.20;99.90;;;;;;5079991;28;20517;-68
2023/01/07 00:53:12;;;;;;;8.60;7.00;;;8.20;99.90;;;;;;5077273;28;20456;-68
2023/01/07 00:55:39;;;;;;;8.80;7.80;;;8.20;99.90;;;;;;5076333;28;20894;-69
2023/01/07 00:58:06;;;;;;;8.83;7.37;;;8.20;99.90;;;;;;5075923;28;20553;-69
2023/01/07 01:00:33;;;;;;;12.40;6.60;;;8.10;99.90;;;;;;5079334;28;20537;-69
2023/01/07 01:03:00;;;;;;;9.67;7.60;;;8.10;99.90;;;;;;5082367;28;20478;-69
2023/01/07 01:05:28;;;;;;;8.53;6.57;;;8.10;99.90;;;;;;5084686;28;20492;-69
2023/01/07 01:07:55;;;;;;;7.90;6.50;;;8.10;99.90;;;;;;5083724;28;20464;-68
2023/01/07 01:10:22;;;;;;;10.10;6.60;;;8.10;99.90;;;;;;5080812;28;20480;-69
2023/01/07 01:12:49;;;;;;;7.00;5.73;;;8.10;99.90;;;;;;5079731;28;20455;-69
2023/01/07 01:15:17;;;;;;;6.67;5.60;;;8.10;99.90;;;;;;5080085;28;20469;-69
2023/01/07 01:17:44;;;;;;;8.20;7.00;;;8.10;99.90;;;;;;5079459;28;20454;-69
2023/01/07 01:20:15;;;;;;;8.37;6.63;;;8.10;99.90;;;;;;5079415;28;20468;-69
2023/01/07 01:22:43;;;;;;;7.03;5.40;;;8.10;99.90;;;;;;5079551;28;20551;-69
2023/01/07 01:25:11;;;;;;;7.47;6.00;;;8.10;99.90;;;;;;5079580;28;20537;-68
2023/01/07 01:27:38;;;;;;;7.30;5.83;;;8.10;99.90;;;;;;5079290;28;20545;-69
2023/01/07 01:30:06;;;;;;;7.03;5.57;;;8.10;99.90;;;;;;5079422;28;20480;-69
2023/01/07 01:32:33;;;;;;;6.70;5.70;;;8.10;99.90;;;;;;5079248;28;20454;-69
2023/01/07 01:35:00;;;;;;;7.07;5.60;;;8.10;99.90;;;;;;5079867;28;20458;-68
2023/01/07 01:37:27;;;;;;;10.20;5.70;;;8.10;99.90;;;;;;5081226;28;20557;-69
2023/01/07 01:39:55;;;;;;;6.90;6.10;;;8.10;99.90;;;;;;5081419;28;20560;-69
2023/01/07 01:42:24;;;;;;;7.97;6.10;;;8.10;99.90;;;;;;5081954;28;20521;-69
2023/01/07 01:44:53;;;;;;;7.77;6.27;;;8.10;99.90;;;;;;5080975;28;20549;-69
2023/01/07 01:47:25;;;;;;;8.50;5.87;;;8.10;99.90;;;;;;5079763;28;20458;-69
2023/01/07 01:49:58;;;;;;;6.40;5.47;;;8.10;99.90;;;;;;5081260;28;20442;-69
2023/01/07 01:52:35;;;;;;;11.13;5.60;;;8.10;99.90;;;;;;5080174;28;20869;-69
2023/01/07 01:55:06;;;;;;;6.90;5.53;;;8.00;99.90;;;;;;5080548;28;20932;-69
2023/01/07 01:57:36;;;;;;;6.40;5.10;;;8.00;99.90;;;;;;5080437;28;20525;-69
2023/01/07 02:00:06;;;;;;;6.47;5.77;;;8.00;99.90;;;;;;5079691;28;20518;-69
2023/01/07 02:02:37;;;;;;;7.73;5.47;;;8.00;99.90;;;;;;5080080;28;20464;-69
2023/01/07 02:05:05;;;;;;;7.87;6.60;;;8.00;99.90;;;;;;5080956;28;20538;-69
2023/01/07 02:07:32;;;;;;;7.63;5.90;;;8.00;99.90;;;;;;5081646;28;20517;-69
2023/01/07 02:10:01;;;;;;;5.93;5.10;;;8.00;99.90;;;;;;5081262;28;20493;-68
2023/01/07 02:12:43;;;;;;;7.50;5.33;;;8.00;99.90;;;;;;5081613;28;20541;-68
2023/01/07 02:15:14;;;;;;;5.60;5.00;;;8.00;99.90;;;;;;5081725;28;20506;-70
2023/01/07 02:17:54;;;;;;;7.30;5.20;;;8.00;99.90;;;;;;5081521;28;20442;-69
2023/01/07 02:20:44;;;;;;;7.53;5.70;;;8.00;99.90;;;;;;5078062;28;20522;-68
2023/01/07 02:24:02;;;;;;;6.40;5.23;;;8.10;99.90;;;;;;5078432;28;20500;-69
2023/01/07 02:26:54;;;;;;;5.67;4.80;;;8.10;99.90;;;;;;5081166;28;20517;-69
2023/01/07 02:29:49;;;;;;;6.43;5.60;;;8.20;99.90;;;;;;5080980;28;20460;-69
2023/01/07 02:32:36;;;;;;;7.30;5.50;;;8.20;99.90;;;;;;5080510;28;20481;-69
2023/01/07 02:35:13;;;;;;;5.40;4.53;;;8.20;99.90;;;;;;5081330;28;20477;-69
2023/01/07 02:37:47;;;;;;;8.70;5.90;;;8.20;99.90;;;;;;5080619;28;20533;-68
2023/01/07 02:40:21;;;;;;;7.47;5.10;;;8.10;99.90;;;;;;5081190;28;20503;-69
2023/01/07 02:43:01;;;;;;;7.40;5.93;;;8.10;99.90;;;;;;5080687;28;20533;-70
2023/01/07 02:45:32;;;;;;;5.97;5.40;;;8.10;99.90;;;;;;5080518;28;20438;-69
2023/01/07 02:48:03;;;;;;;7.17;6.00;;;8.10;99.90;;;;;;5079813;28;20455;-68
2023/01/07 02:50:30;;;;;;;6.20;5.20;;;8.10;99.90;;;;;;5078705;28;20811;-69
2023/01/07 02:52:57;;;;;;;6.90;6.20;;;8.10;99.90;;;;;;5077772;28;20453;-69
2023/01/07 02:55:36;;;;;;;8.60;6.50;;;8.10;99.90;;;;;;5077586;28;20454;-69
2023/01/07 02:58:38;;;;;;;6.50;5.27;;;8.10;99.90;;;;;;5077547;28;20438;-69
2023/01/07 03:01:46;;;;;;;7.80;6.30;;;8.10;99.90;;;;;;5046380;28;20457;-69
2023/01/07 03:04:30;;;;;;;7.57;6.50;;;8.10;99.90;;;;;;5069430;28;20958;-69
2023/01/07 03:07:12;;;;;;;8.57;7.10;;;8.00;99.90;;;;;;5077197;28;20513;-68
2023/01/07 03:09:45;;;;;;;8.33;6.87;;;7.90;99.90;;;;;;5077462;28;20443;-69
2023/01/07 03:12:19;;;;;;;11.57;8.23;;;7.90;99.90;;;;;;5077058;28;20538;-69
2023/01/07 03:14:50;;;;;;;8.20;6.87;;;8.00;99.90;;;;;;5077146;28;20443;-69
2023/01/07 03:17:21;;;;;;;11.43;7.40;;;7.90;99.90;;;;;;5078052;28;20442;-68
2023/01/07 03:19:53;;;;;;;8.63;7.23;;;7.90;99.90;;;;;;5077935;28;20484;-69
2023/01/07 03:22:23;;;;;;;12.00;8.97;;;7.90;99.90;;;;;;5077733;28;20584;-69
2023/01/07 03:24:52;;;;;;;12.33;9.23;;;7.90;99.90;;;;;;5079348;28;20482;-68
2023/01/07 03:27:21;;;;;;;11.47;8.30;;;7.90;99.90;;;;;;5077939;28;20454;-68
2023/01/07 03:29:48;;;;;;;12.80;9.50;;;7.90;99.90;;;;;;5077107;28;20473;-68
2023/01/07 03:32:17;;;;;;;13.00;9.20;;;7.90;99.90;;;;;;5077209;28;20459;-69
2023/01/07 03:34:45;;;;;;;13.20;10.33;;;7.90;99.90;;;;;;5077358;28;20461;-68
2023/01/07 03:37:16;;;;;;;13.17;10.50;;;8.00;99.90;;;;;;5077466;28;20530;-69
2023/01/07 03:39:45;;;;;;;11.23;8.87;;;8.00;99.90;;;;;;5077386;28;20504;-68
2023/01/07 03:44:58;;;;;;;12.40;10.27;;;8.10;99.90;;;;;;5077119;28;20802;-68
2023/01/07 03:47:27;;;;;;;14.50;10.10;;;8.10;99.90;;;;;;5077173;28;20519;-69
2023/01/07 03:49:54;;;;;;;13.07;9.43;;;8.10;99.90;;;;;;5076924;28;20541;-69
2023/01/07 03:52:22;;;;;;;14.20;10.10;;;8.10;99.90;;;;;;5077558;28;20468;-69
2023/01/07 03:54:49;;;;;;;12.90;10.30;;;8.20;99.90;;;;;;5076552;28;20543;-70
2023/01/07 03:57:16;;;;;;;12.53;10.03;;;8.20;99.90;;;;;;5076771;28;20454;-68
2023/01/07 03:59:42;;;;;;;15.37;11.30;;;8.20;99.90;;;;;;5076696;28;20545;-68
2023/01/07 04:02:09;;;;;;;12.23;9.17;;;8.20;99.90;;;;;;5076944;28;20458;-68
2023/01/07 04:04:36;;;;;;;12.97;10.50;;;8.20;99.90;;;;;;5076757;28;20532;-68
2023/01/07 04:07:04;;;;;;;12.27;9.40;;;8.10;99.90;;;;;;5077218;28;20978;-69
2023/01/07 04:09:32;;;;;;;16.50;10.90;;;8.10;99.90;;;;;;5077418;28;20831;-69
2023/01/07 04:11:59;;;;;;;14.90;10.90;;;8.10;99.90;;;;;;5077248;28;20469;-68
2023/01/07 04:14:26;;;;;;;16.83;11.93;;;8.10;99.90;;;;;;5079925;28;20784;-68
2023/01/07 04:16:52;;;;;;;15.90;11.13;;;8.10;99.90;;;;;;5081169;28;20458;-68
2023/01/07 04:19:19;;;;;;;15.73;10.63;;;8.10;99.90;;;;;;5079129;28;20536;-68
2023/01/07 04:21:46;;;;;;;14.03;10.83;;;8.10;99.90;;;;;;5078447;28;20967;-69
2023/01/07 04:24:13;;;;;;;12.90;10.67;;;8.10;99.90;;;;;;5076940;28;20478;-68
2023/01/07 04:26:41;;;;;;;11.97;10.07;;;8.10;99.90;;;;;;5077761;28;20950;-68
2023/01/07 04:29:08;;;;;;;14.13;10.27;;;8.00;99.90;;;;;;5077829;28;20912;-68
2023/01/07 04:31:35;;;;;;;16.90;11.30;;;8.00;99.90;;;;;;5076812;28;20557;-69
2023/01/07 04:34:02;;;;;;;14.20;10.70;;;7.90;99.90;;;;;;5076640;28;20494;-69
2023/01/07 04:36:29;;;;;;;13.97;11.20;;;8.00;99.90;;;;;;5080830;28;20454;-69
2023/01/07 04:38:56;;;;;;;13.17;10.57;;;8.00;99.90;;;;;;5080957;28;20541;-69
2023/01/07 04:41:23;;;;;;;14.87;10.80;;;8.00;99.90;;;;;;5081170;28;20485;-69
2023/01/07 04:43:51;;;;;;;15.97;11.50;;;8.00;99.90;;;;;;5080943;28;20536;-69
2023/01/07 04:46:18;;;;;;;13.63;10.70;;;8.00;99.90;;;;;;5080916;28;20544;-70
2023/01/07 04:48:45;;;;;;;12.57;9.80;;;8.00;99.90;;;;;;5081450;28;20545;-69
2023/01/07 04:51:11;;;;;;;17.60;11.30;;;8.00;99.90;;;;;;5081053;28;20486;-69
2023/01/07 04:53:38;;;;;;;13.87;10.33;;;8.00;99.90;;;;;;5081989;28;20450;-70
2023/01/07 04:56:06;;;;;;;14.23;10.80;;;8.00;99.90;;;;;;5080682;28;20454;-68
2023/01/07 04:58:33;;;;;;;14.13;10.33;;;8.00;99.90;;;;;;5079766;28;20798;-69
2023/01/07 05:01:02;;;;;;;12.57;10.53;;;8.00;99.90;;;;;;5079996;28;20536;-69
2023/01/07 05:03:29;;;;;;;15.43;10.53;;;8.10;99.90;;;;;;5079962;28;20449;-69
2023/01/07 05:05:58;;;;;;;12.47;9.70;;;8.10;99.90;;;;;;5080076;28;20468;-68
2023/01/07 05:08:24;;;;;;;12.00;9.40;;;8.20;99.90;;;;;;5080396;28;20450;-69
2023/01/07 05:10:52;;;;;;;13.80;10.23;;;8.20;99.90;;;;;;5081115;28;20459;-69
2023/01/07 05:13:20;;;;;;;13.77;9.50;;;8.20;99.90;;;;;;5080357;28;20911;-69
2023/01/07 05:15:47;;;;;;;12.40;10.10;;;8.20;99.90;;;;;;5081626;28;20510;-69
2023/01/07 05:18:16;;;;;;;14.20;10.20;;;8.30;99.90;;;;;;5081341;28;20460;-69
2023/01/07 05:20:43;;;;;;;12.37;9.50;;;8.20;99.90;;;;;;5083075;28;20896;-69
2023/01/07 05:23:09;;;;;;;13.50;10.20;;;8.20;99.90;;;;;;5081514;28;20565;-69
2023/01/07 05:25:36;;;;;;;12.50;10.00;;;8.20;99.90;;;;;;5080857;28;20482;-69
2023/01/07 05:28:03;;;;;;;13.60;9.07;;;8.20;99.90;;;;;;5081548;28;20814;-69
2023/01/07 05:30:30;;;;;;;15.33;10.77;;;8.20;99.90;;;;;;5080604;28;20554;-68
2023/01/07 05:32:57;;;;;;;15.40;10.40;;;8.20;99.90;;;;;;5082224;28;20458;-68
2023/01/07 05:35:25;;;;;;;12.10;9.93;;;8.20;99.90;;;;;;5082287;28;20794;-70
2023/01/07 05:37:52;;;;;;;16.47;10.73;;;8.10;99.90;;;;;;5081428;28;20500;-69
2023/01/07 05:40:19;;;;;;;13.90;11.27;;;8.10;99.90;;;;;;5080906;28;20504;-69
2023/01/07 05:42:46;;;;;;;12.87;10.00;;;8.10;99.90;;;;;;5080615;28;20919;-69
2023/01/07 05:45:13;;;;;;;13.53;9.77;;;8.20;99.90;;;;;;5079958;28;20482;-69
2023/01/07 05:47:39;;;;;;;13.90;11.47;;;8.20;99.90;;;;;;5080339;28;20528;-68
2023/01/07 05:50:07;;;;;;;15.83;11.30;;;8.20;99.90;;;;;;5079357;28;20536;-67
2023/01/07 05:52:35;;;;;;;13.60;10.07;;;8.20;99.90;;;;;;5080193;28;20529;-68
2023/01/07 05:55:02;;;;;;;14.70;10.27;;;8.20;99.90;;;;;;5081963;28;20481;-68
2023/01/07 05:57:29;;;;;;;14.13;10.40;;;8.20;99.90;;;;;;5083738;28;20853;-69
2023/01/07 05:59:56;;;;;;;13.43;11.03;;;8.20;99.90;;;;;;5082776;28;20454;-68
2023/01/07 06:02:22;;;;;;;13.90;10.90;;;8.20;99.90;;;;;;5082121;28;20557;-66
2023/01/07 06:04:49;;;;;;;14.60;11.37;;;8.30;99.90;;;;;;5081936;28;20508;-68
2023/01/07 06:07:16;;;;;;;14.83;11.43;;;8.30;99.90;;;;;;5081505;28;20982;-67
2023/01/07 06:09:44;;;;;;;12.33;10.13;;;8.30;99.90;;;;;;5085137;28;20478;-68
2023/01/07 06:12:11;;;;;;;12.83;10.60;;;8.20;99.90;;;;;;5082247;28;20486;-69
2023/01/07 06:14:38;;;;;;;13.93;10.40;;;8.20;99.90;;;;;;5085597;28;20766;-68
2023/01/07 06:17:05;;;;;;;15.27;10.87;;;8.20;99.90;;;;;;5085248;28;20538;-68
2023/01/07 06:19:32;;;;;;;13.03;10.47;;;8.20;99.90;;;;;;5083778;28;21009;-68
2023/01/07 06:21:58;;;;;;;15.37;11.50;;;8.30;99.90;;;;;;5081422;28;20543;-68
2023/01/07 06:24:25;;;;;;;15.27;11.03;;;8.30;99.90;;;;;;5081832;28;20813;-67
2023/01/07 06:26:53;;;;;;;14.07;11.10;;;8.30;99.90;;;;;;5081548;28;20990;-67
2023/01/07 06:29:20;;;;;;;13.83;10.43;;;8.30;99.90;;;;;;5082258;28;20464;-68
2023/01/07 06:31:47;;;;;;;16.00;11.93;;;8.30;99.90;;;;;;5082343;28;20454;-68
2023/01/07 06:34:14;;;;;;;13.90;10.30;;;8.30;99.90;;;;;;5081723;28;20450;-67
2023/01/07 06:36:41;;;;;;;14.97;10.67;;;8.30;99.90;;;;;;5082032;28;20546;-68
2023/01/07 06:39:08;;;;;;;13.70;10.50;;;8.30;99.90;;;;;;5082701;28;20496;-68
2023/01/07 06:41:34;;;;;;;13.00;10.53;;;8.30;99.90;;;;;;5083372;28;20549;-67
2023/01/07 06:44:03;;;;;;;12.50;10.40;;;8.20;99.90;;;;;;5082530;28;20478;-69
2023/01/07 06:46:29;;;;;;;16.77;11.10;;;8.20;99.90;;;;;;5083209;28;20533;-68
2023/01/07 06:48:56;;;;;;;15.27;10.90;;;8.20;99.90;;;;;;5082926;28;20474;-67
2023/01/07 06:51:23;;;;;;;12.07;9.90;;;8.20;99.90;;;;;;5083204;28;20998;-69
2023/01/07 06:53:50;;;;;;;15.80;11.37;;;8.20;99.90;;;;;;5083376;28;20847;-68
2023/01/07 06:56:17;;;;;;;13.83;10.57;;;8.20;99.90;;;;;;5082918;28;20450;-67
2023/01/07 06:58:44;;;;;;;13.47;9.90;;;8.20;99.90;;;;;;5082113;28;20489;-69
2023/01/07 07:01:12;;;;;;;14.80;10.80;;;8.20;99.90;;;;;;5083024;28;20541;-68
2023/01/07 07:03:39;;;;;;;12.53;10.13;;;8.20;99.90;;;;;;5083045;28;20465;-69
2023/01/07 07:06:06;;;;;;;13.07;10.03;;;8.20;99.90;;;;;;5082406;28;20486;-69
2023/01/07 07:08:33;;;;;;;14.53;9.97;;;8.20;99.90;;;;;;5083015;28;20522;-68
2023/01/07 07:11:00;;;;;;;13.47;11.23;;;8.20;99.90;;;;;;5082735;28;20541;-68
2023/01/07 07:13:27;;;;;;;13.63;11.20;;;8.20;99.90;;;;;;5082936;28;20518;-68
2023/01/07 07:15:54;;;;;;;14.73;10.53;;;8.20;99.90;;;;;;5082608;28;20990;-68
2023/01/07 07:18:22;;;;;;;12.97;10.40;;;8.20;99.90;;;;;;5082466;28;20549;-69
2023/01/07 07:20:49;;;;;;;16.77;10.83;;;8.20;99.90;;;;;;5082941;28;20533;-69
2023/01/07 07:23:16;;;;;;;14.07;9.70;;;8.20;99.90;;;;;;5083342;28;20525;-67
2023/01/07 07:25:43;;;;;;;12.40;9.40;;;8.20;99.90;;;;;;5082793;28;20496;-68
2023/01/07 07:28:10;;;;;;;12.70;10.20;;;8.20;99.90;;;;;;5082662;28;20541;-69
2023/01/07 07:30:37;;;;;;;11.63;10.37;;;8.20;99.90;;;;;;5082969;28;20459;-69
2023/01/07 07:33:04;;;;;;;11.87;9.30;;;8.20;99.90;;;;;;5082425;28;20466;-68
2023/01/07 07:35:33;;;;;;;11.70;10.50;;;8.30;99.90;;;;;;5082167;28;20465;-69
2023/01/07 07:37:59;;;;;;;14.30;10.50;;;8.30;99.90;;;;;;5082222;28;20458;-68
2023/01/07 07:40:27;;;;;;;12.07;8.40;;;8.30;99.90;;;;;;5082141;28;20541;-67
2023/01/07 07:42:54;;;;;;;12.90;10.67;;;8.30;99.90;;;;;;5082752;28;20458;-67
2023/01/07 07:45:21;;;;;;;11.67;8.53;;;8.30;99.90;;;;;;5081872;28;20974;-68
2023/01/07 07:47:48;;;;;;;13.43;10.20;;;8.30;99.90;;;;;;5080724;28;20490;-68
2023/01/07 07:50:15;;;;;;;12.10;9.37;;;8.30;99.90;;;;;;5081761;28;20485;-67
2023/01/07 07:52:44;;;;;;;11.87;8.83;;;8.40;99.90;;;;;;5081490;28;20482;-68
2023/01/07 07:55:11;;;;;;;11.87;10.40;;;8.40;99.90;;;;;;5082110;28;20469;-69
2023/01/07 07:57:38;;;;;;;11.43;8.50;;;8.40;99.90;;;;;;5081902;28;20988;-69
2023/01/07 08:00:07;;;;;;;11.70;8.87;;;8.40;99.90;;;;;;5081557;28;20469;-68
2023/01/07 08:02:34;;;;;;;12.67;9.00;;;8.40;99.90;;;;;;5082421;28;20541;-68
2023/01/07 08:05:01;;;;;;;10.90;8.93;;;8.40;99.90;;;;;;5081658;28;20484;-69
2023/01/07 08:07:28;;;;;;;11.10;8.70;;;8.40;99.90;;;;;;5082413;28;20450;-68
2023/01/07 08:09:56;;;;;;;12.33;8.47;;;8.40;99.90;;;;;;5081996;28;20605;-69
2023/01/07 08:12:22;;;;;;;9.57;8.27;;;8.40;99.90;;;;;;5081844;28;20841;-69
2023/01/07 08:14:49;;;;;;;12.37;8.83;;;8.40;99.90;;;;;;5081158;28;20522;-68
2023/01/07 08:17:16;;;;;;;12.90;7.97;;;8.40;99.90;;;;;;5081903;28;20460;-69
2023/01/07 08:19:43;;;;;;;10.37;8.43;;;8.40;99.90;;;;;;5082165;28;20474;-68
2023/01/07 08:22:10;;;;;;;9.60;8.40;;;8.50;99.90;;;;;;5081238;28;20486;-68
2023/01/07 08:24:37;;;;;;;9.27;7.90;;;8.50;99.90;;;;;;5081432;28;20513;-68
2023/01/07 08:27:07;;;;;;;12.90;8.10;;;8.60;99.90;;;;;;5080770;28;20541;-69
2023/01/07 08:29:33;;;;;;;9.00;7.40;;;8.60;99.90;;;;;;5081150;28;20546;-68
2023/01/07 08:32:01;;;;;;;7.97;6.67;;;8.60;99.90;;;;;;5081343;28;20497;-69
2023/01/07 08:34:28;;;;;;;8.50;7.63;;;8.60;99.90;;;;;;5081008;28;20545;-70
2023/01/07 08:36:55;;;;;;;7.30;6.40;;;8.70;99.90;;;;;;5080819;28;20451;-70
2023/01/07 08:39:21;;;;;;;8.30;6.67;;;8.70;99.90;;;;;;5080937;28;20458;-68
2023/01/07 08:41:48;;;;;;;11.00;7.00;;;8.80;99.90;;;;;;5080927;28;20836;-70
2023/01/07 08:44:16;;;;;;;8.33;6.13;;;8.80;99.90;;;;;;5080856;28;20458;-69
2023/01/07 08:46:43;;;;;;;7.07;5.73;;;8.80;99.90;;;;;;5080677;28;20525;-69
2023/01/07 08:49:10;;;;;;;7.80;6.37;;;8.80;99.90;;;;;;5081408;28;20513;-69
2023/01/07 08:51:37;;;;;;;6.80;6.07;;;8.90;99.90;;;;;;5081334;28;20552;-68
2023/01/07 08:54:04;;;;;;;7.70;5.70;;;8.90;99.90;;;;;;5081599;28;20848;-69
2023/01/07 08:56:32;;;;;;;9.03;5.93;;;8.90;99.90;;;;;;5081432;28;20541;-68
2023/01/07 08:58:59;;;;;;;6.10;5.50;;;9.00;99.90;;;;;;5081021;28;20494;-70
2023/01/07 09:01:27;;;;;;;6.07;5.47;;;9.00;99.90;;;;;;5081313;28;20549;-69
2023/01/07 09:03:54;;;;;;;6.60;5.20;;;9.00;99.90;;;;;;5080944;28;20839;-69
2023/01/07 09:06:22;;;;;;;7.50;6.40;;;9.10;99.90;;;;;;5080653;28;20498;-68
2023/01/07 09:08:49;;;;;;;6.60;5.33;;;9.10;99.90;;;;;;5081115;28;20465;-68
2023/01/07 09:11:16;;;;;;;7.03;5.73;;;9.20;99.90;;;;;;5080683;28;20528;-69
2023/01/07 09:13:43;;;;;;;6.10;5.50;;;9.20;99.90;;;;;;5082782;28;20465;-69
2023/01/07 09:16:10;;;;;;;6.60;5.27;;;9.20;99.90;;;;;;5081836;28;20450;-68
2023/01/07 09:18:38;;;;;;;6.90;5.80;;;9.20;99.90;;;;;;5069369;28;20494;-68
2023/01/07 09:21:06;;;;;;;6.00;5.40;;;9.20;99.90;;;;;;5062920;28;20470;-69
2023/01/07 09:23:33;;;;;;;6.23;5.63;;;9.30;99.90;;;;;;5064925;28;20570;-68
2023/01/07 09:26:00;;;;;;;7.10;5.30;;;9.30;99.90;;;;;;5064758;28;20555;-69
2023/01/07 09:28:27;;;;;;;6.73;5.53;;;9.20;99.90;;;;;;5065349;28;20512;-69
2023/01/07 09:30:53;;;;;;;5.90;5.30;;;9.30;99.90;;;;;;5064664;28;20773;-69
2023/01/07 09:33:20;;;;;;;5.10;4.60;;;9.30;99.90;;;;;;5064419;28;20451;-69
2023/01/07 09:35:48;;;;;;;5.70;4.90;;;9.30;99.90;;;;;;5064638;28;20461;-68
2023/01/07 09:38:15;;;;;;;6.30;5.03;;;9.30;99.90;;;;;;5063975;28;20502;-68
2023/01/07 09:40:43;;;;;;;5.30;4.80;;;9.40;99.90;;;;;;5063842;28;20465;-69
2023/01/07 09:43:15;;;;;;;6.63;5.73;;;9.40;99.90;;;;;;5062414;28;20455;-68
2023/01/07 09:45:46;;;;;;;5.83;5.23;;;9.40;99.90;;;;;;5062012;28;20520;-69
2023/01/07 09:48:20;;;;;;;5.73;5.00;;;9.40;99.90;;;;;;5061326;28;20440;-68
2023/01/07 09:50:54;;;;;;;5.60;5.00;;;9.50;99.90;;;;;;5060501;28;20469;-68
2023/01/07 09:53:25;;;;;;;9.30;5.80;;;9.50;99.90;;;;;;5061599;28;20439;-69
2023/01/07 09:55:54;;;;;;;5.10;4.60;;;9.50;99.90;;;;;;5062410;28;20431;-68
2023/01/07 09:58:22;;;;;;;5.70;4.63;;;9.60;99.90;;;;;;5062410;28;20469;-69
2023/01/07 10:00:58;;;;;;;5.63;4.73;;;9.60;99.90;;;;;;5063029;28;20817;-69
2023/01/07 10:03:41;;;;;;;6.40;5.20;;;9.60;99.90;;;;;;5063937;28;20446;-69
2023/01/07 10:06:15;;;;;;;6.30;4.80;;;9.60;99.90;;;;;;5063636;28;20463;-70
2023/01/07 10:08:53;;;;;;;7.10;5.33;;;9.50;99.90;;;;;;5062856;28;20951;-69
2023/01/07 10:11:29;;;;;;;5.77;5.10;;;9.50;99.90;;;;;;5063913;28;20525;-69
2023/01/07 10:14:28;;;;;;;6.33;5.17;;;9.60;99.90;;;;;;5064069;28;20521;-68
2023/01/07 10:17:08;;;;;;;5.50;5.00;;;9.60;99.90;;;;;;5063349;28;20451;-69
2023/01/07 10:19:41;;;;;;;5.97;5.00;;;9.60;99.90;;;;;;5063606;28;20490;-68
2023/01/07 10:22:18;;;;;;;6.47;5.20;;;9.60;99.90;;;;;;5062211;28;20963;-70
2023/01/07 10:24:48;;;;;;;6.13;5.50;;;9.70;99.90;;;;;;5061759;28;20473;-68
2023/01/07 10:27:23;;;;;;;5.23;4.73;;;9.70;99.90;;;;;;5061822;28;20553;-69
2023/01/07 10:29:54;;;;;;;5.57;5.00;;;9.70;99.90;;;;;;5061362;28;20887;-69
2023/01/07 10:32:24;;;;;;;6.40;5.20;;;9.80;99.90;;;;;;5061352;28;20471;-69
2023/01/07 10:34:54;;;;;;;6.43;5.23;;;9.80;99.90;;;;;;5061089;28;20462;-69
2023/01/07 10:37:29;;;;;;;6.10;4.70;;;9.80;99.90;;;;;;5061231;28;20451;-69
2023/01/07 10:40:08;;;;;;;5.57;4.97;;;9.90;99.90;;;;;;5061594;28;20511;-68
2023/01/07 10:42:41;;;;;;;6.63;5.10;;;9.80;99.90;;;;;;5061223;28;20861;-69
2023/01/07 10:45:30;;;;;;;5.10;4.60;;;9.80;99.90;;;;;;5061467;28;20842;-69
2023/01/07 10:48:31;;;;;;;5.13;4.67;;;9.80;99.90;;;;;;5060745;28;20439;-69
2023/01/07 10:51:11;;;;;;;7.67;5.27;;;9.80;99.90;;;;;;5061551;28;20484;-69
2023/01/07 10:53:55;;;;;;;6.93;4.70;;;9.90;99.90;;;;;;5061812;28;20450;-68
2023/01/07 10:56:28;;;;;;;5.23;4.43;;;9.80;99.90;;;;;;5060301;28;20549;-69
2023/01/07 10:58:55;;;;;;;5.20;4.70;;;9.90;99.90;;;;;;5060423;28;20443;-68
2023/01/07 11:01:25;;;;;;;6.70;4.70;;;9.90;99.90;;;;;;5059498;28;20455;-68
2023/01/07 11:03:54;;;;;;;5.67;5.07;;;10.00;99.90;;;;;;5058990;28;20515;-69
2023/01/07 11:06:33;;;;;;;5.17;4.03;;;10.10;99.90;;;;;;5060200;28;20483;-69
2023/01/07 11:09:04;;;;;;;4.77;4.23;;;10.10;99.90;;;;;;5059079;28;20447;-69
2023/01/07 11:11:33;;;;;;;4.77;4.17;;;10.10;99.90;;;;;;5059391;28;20458;-68
2023/01/07 11:14:04;;;;;;;9.67;7.03;;;10.00;99.90;;;;;;5059550;28;20455;-69
2023/01/07 11:16:36;;;;;;;11.03;7.93;;;10.00;99.90;;;;;;5059030;28;20439;-70
2023/01/07 11:19:05;;;;;;;5.00;4.30;;;10.00;99.90;;;;;;5058090;28;20443;-69
2023/01/07 11:21:35;;;;;;;4.17;3.77;;;10.10;99.90;;;;;;5058876;28;20523;-69
2023/01/07 11:24:24;;;;;;;4.20;3.80;;;10.10;99.90;;;;;;5059377;28;20526;-69
2023/01/07 11:26:51;;;;;;;4.00;3.70;;;10.10;99.90;;;;;;5058831;28;20466;-69
2023/01/07 11:29:24;;;;;;;4.00;3.60;;;10.10;99.90;;;;;;5059405;28;20439;-69
2023/01/07 11:31:54;;;;;;;4.20;3.80;;;10.10;99.90;;;;;;5057922;28;20531;-68
2023/01/07 11:34:25;;;;;;;3.60;3.30;;;10.10;99.90;;;;;;5058597;28;20443;-69
2023/01/07 11:36:52;;;;;;;3.40;3.10;;;10.10;99.90;;;;;;5059568;28;20840;-68
2023/01/07 11:39:22;;;;;;;6.00;3.30;;;10.20;99.90;;;;;;5058420;28;20455;-68
2023/01/07 11:41:54;;;;;;;6.27;3.70;;;10.20;99.90;;;;;;5058512;28;20528;-69
2023/01/07 11:44:22;;;;;;;5.47;3.60;;;10.30;99.90;;;;;;5058526;28;20459;-69
2023/01/07 11:46:49;;;;;;;3.17;2.87;;;10.30;99.90;;;;;;5058264;28;20506;-69
2023/01/07 11:49:30;;;;;;;3.57;3.27;;;10.40;99.90;;;;;;5057797;28;20463;-70
2023/01/07 11:51:58;;;;;;;6.80;3.50;;;10.50;99.90;;;;;;5057737;28;20462;-69
2023/01/07 11:54:28;;;;;;;6.20;3.43;;;10.50;99.90;;;;;;5057278;28;20549;-69
2023/01/07 11:57:10;;;;;;;4.10;2.70;;;10.60;99.90;;;;;;5058336;28;20486;-69
2023/01/07 11:59:37;;;;;;;3.83;2.80;;;10.70;99.90;;;;;;5057894;28;20523;-69
2023/01/07 12:02:23;;;;;;;2.93;2.60;;;10.80;99.90;;;;;;5057186;28;20488;-70
2023/01/07 12:04:50;;;;;;;2.80;2.60;;;10.80;99.90;;;;;;5056957;28;20888;-69
2023/01/07 12:07:17;;;;;;;3.00;2.70;;;10.90;99.90;;;;;;5056155;28;20483;-68
2023/01/07 12:09:46;;;;;;;3.53;2.80;;;11.00;99.90;;;;;;5056547;28;20480;-70
2023/01/07 12:12:33;;;;;;;4.13;2.47;;;11.10;99.90;;;;;;5057000;28;20455;-68
2023/01/07 12:15:02;;;;;;;2.70;2.30;;;11.10;99.90;;;;;;5058314;28;20817;-68
2023/01/07 12:17:31;;;;;;;6.27;3.13;;;11.10;99.90;;;;;;5059414;28;20447;-69
2023/01/07 12:20:13;;;;;;;3.73;2.80;;;11.10;99.90;;;;;;5059264;28;20490;-69
2023/01/07 12:22:49;;;;;;;4.23;2.63;;;11.20;99.90;;;;;;5056034;28;20485;-68
2023/01/07 12:25:38;;;;;;;3.03;2.30;;;11.20;99.90;;;;;;5055906;28;20897;-69
2023/01/07 12:28:11;;;;;;;4.23;2.80;;;11.10;99.90;;;;;;5056076;28;20462;-69
2023/01/07 12:31:04;;;;;;;5.30;2.03;;;11.20;99.90;;;;;;5056085;28;20483;-69
2023/01/07 12:33:55;;;;;;;3.07;2.63;;;11.20;99.90;;;;;;5055783;28;20439;-69
2023/01/07 12:36:34;;;;;;;3.30;2.60;;;11.20;99.90;;;;;;5055504;28;20450;-69
2023/01/07 12:39:07;;;;;;;2.60;1.87;;;11.30;99.90;;;;;;5055771;28;20441;-69
2023/01/07 12:41:40;;;;;;;2.73;2.20;;;11.30;99.90;;;;;;5056262;28;20879;-68
2023/01/07 12:44:12;;;;;;;2.20;2.00;;;11.40;99.90;;;;;;5056184;28;20443;-68
2023/01/07 12:46:43;;;;;;;2.37;2.17;;;11.40;99.90;;;;;;5057850;28;20467;-69
2023/01/07 12:49:16;;;;;;;5.03;2.17;;;11.40;99.90;;;;;;5056605;28;20557;-70
2023/01/07 12:51:49;;;;;;;3.13;2.30;;;11.40;99.90;;;;;;5056046;28;20454;-68
2023/01/07 12:54:21;;;;;;;4.03;2.30;;;11.40;99.90;;;;;;5056532;28;20851;-69
2023/01/07 12:56:54;;;;;;;2.93;2.60;;;11.40;99.90;;;;;;5059951;28;20460;-69
2023/01/07 12:59:25;;;;;;;2.77;2.37;;;11.40;99.90;;;;;;5063722;28;20465;-68
2023/01/07 13:01:57;;;;;;;3.17;2.30;;;11.40;99.90;;;;;;5064876;28;20443;-69
2023/01/07 13:04:38;;;;;;;3.87;3.17;;;11.40;99.90;;;;;;5063287;28;20837;-68
2023/01/07 13:07:13;;;;;;;3.67;2.97;;;11.40;99.90;;;;;;5063437;28;20463;-69